sensor_id;sensor_type;location;lat;lon;timestamp;P1;durP1;ratioP1;P2;durP2;ratioP2
55372;SDS011;70018;47.838;16.490;2023-07-09T00:00:50;3.05;;;2.20;;
55372;SDS011;70018;47.838;16.490;2023-07-09T00:03:17;4.28;;;2.42;;
55372;SDS011;70018;47.838;16.490;2023-07-09T00:05:46;6.13;;;2.60;;
55372;SDS011;70018;47.838;16.490;2023-07-09T00:08:21;6.43;;;2.55;;
55372;SDS011;70018;47.838;16.490;2023-07-09T00:10:54;3.17;;;2.00;;
55372;SDS011;70018;47.838;16.490;2023-07-09T00:13:22;2.80;;;1.40;;
55372;SDS011;70018;47.838;16.490;2023-07-09T00:15:50;2.55;;;1.60;;
55372;SDS011;70018;47.838;16.490;2023-07-09T00:18:17;4.15;;;2.05;;
55372;SDS011;70018;47.838;16.490;2023-07-09T00:20:44;2.83;;;2.17;;
55372;SDS011;70018;47.838;16.490;2023-07-09T00:23:14;3.78;;;1.80;;
55372;SDS011;70018;47.838;16.490;2023-07-09T00:25:43;2.38;;;1.00;;
55372;SDS011;70018;47.838;16.490;2023-07-09T00:28:14;3.92;;;1.55;;
55372;SDS011;70018;47.838;16.490;2023-07-09T00:30:41;2.38;;;1.70;;
55372;SDS011;70018;47.838;16.490;2023-07-09T00:33:12;2.75;;;2.08;;
55372;SDS011;70018;47.838;16.490;2023-07-09T00:35:45;2.75;;;1.90;;
55372;SDS011;70018;47.838;16.490;2023-07-09T00:38:15;1.70;;;1.35;;
55372;SDS011;70018;47.838;16.490;2023-07-09T00:40:58;3.00;;;1.90;;
55372;SDS011;70018;47.838;16.490;2023-07-09T00:43:32;4.03;;;2.40;;
55372;SDS011;70018;47.838;16.490;2023-07-09T00:48:46;3.20;;;2.22;;
55372;SDS011;70018;47.838;16.490;2023-07-09T00:51:18;2.45;;;1.65;;
55372;SDS011;70018;47.838;16.490;2023-07-09T00:53:51;2.78;;;1.90;;
55372;SDS011;70018;47.838;16.490;2023-07-09T00:56:36;2.20;;;1.17;;
55372;SDS011;70018;47.838;16.490;2023-07-09T00:59:07;3.33;;;1.20;;
55372;SDS011;70018;47.838;16.490;2023-07-09T01:01:37;0.90;;;0.80;;
55372;SDS011;70018;47.838;16.490;2023-07-09T01:04:07;2.17;;;0.93;;
55372;SDS011;70018;47.838;16.490;2023-07-09T01:06:37;8.43;;;2.70;;
55372;SDS011;70018;47.838;16.490;2023-07-09T01:09:09;5.20;;;2.47;;
55372;SDS011;70018;47.838;16.490;2023-07-09T01:11:36;3.25;;;2.38;;
55372;SDS011;70018;47.838;16.490;2023-07-09T01:14:05;1.92;;;1.38;;
55372;SDS011;70018;47.838;16.490;2023-07-09T01:16:41;2.05;;;1.10;;
55372;SDS011;70018;47.838;16.490;2023-07-09T01:19:12;2.42;;;1.40;;
55372;SDS011;70018;47.838;16.490;2023-07-09T01:21:40;1.33;;;1.02;;
55372;SDS011;70018;47.838;16.490;2023-07-09T01:24:11;3.33;;;1.67;;
55372;SDS011;70018;47.838;16.490;2023-07-09T01:29:07;2.75;;;1.88;;
55372;SDS011;70018;47.838;16.490;2023-07-09T01:31:33;3.10;;;1.42;;
55372;SDS011;70018;47.838;16.490;2023-07-09T01:34:01;3.35;;;1.10;;
55372;SDS011;70018;47.838;16.490;2023-07-09T01:36:28;1.95;;;1.50;;
55372;SDS011;70018;47.838;16.490;2023-07-09T01:38:55;4.65;;;2.28;;
55372;SDS011;70018;47.838;16.490;2023-07-09T01:41:22;3.20;;;1.63;;
55372;SDS011;70018;47.838;16.490;2023-07-09T01:43:49;2.08;;;1.50;;
55372;SDS011;70018;47.838;16.490;2023-07-09T01:46:15;4.85;;;1.38;;
55372;SDS011;70018;47.838;16.490;2023-07-09T01:48:43;2.22;;;1.45;;
55372;SDS011;70018;47.838;16.490;2023-07-09T01:51:11;2.20;;;1.02;;
55372;SDS011;70018;47.838;16.490;2023-07-09T01:53:42;3.17;;;2.10;;
55372;SDS011;70018;47.838;16.490;2023-07-09T01:56:10;3.17;;;1.75;;
55372;SDS011;70018;47.838;16.490;2023-07-09T01:58:37;1.85;;;1.40;;
55372;SDS011;70018;47.838;16.490;2023-07-09T02:01:08;3.08;;;1.88;;
55372;SDS011;70018;47.838;16.490;2023-07-09T02:03:35;2.65;;;1.35;;
55372;SDS011;70018;47.838;16.490;2023-07-09T02:06:02;3.13;;;1.75;;
55372;SDS011;70018;47.838;16.490;2023-07-09T02:08:35;1.63;;;1.42;;
55372;SDS011;70018;47.838;16.490;2023-07-09T02:11:02;2.17;;;1.40;;
55372;SDS011;70018;47.838;16.490;2023-07-09T02:13:29;2.67;;;1.73;;
55372;SDS011;70018;47.838;16.490;2023-07-09T02:15:57;3.30;;;2.00;;
55372;SDS011;70018;47.838;16.490;2023-07-09T02:18:24;2.92;;;1.77;;
55372;SDS011;70018;47.838;16.490;2023-07-09T02:20:52;5.10;;;2.50;;
55372;SDS011;70018;47.838;16.490;2023-07-09T02:23:19;5.20;;;2.95;;
55372;SDS011;70018;47.838;16.490;2023-07-09T02:25:45;4.40;;;3.00;;
55372;SDS011;70018;47.838;16.490;2023-07-09T02:28:12;3.70;;;2.53;;
55372;SDS011;70018;47.838;16.490;2023-07-09T02:30:38;4.40;;;2.90;;
55372;SDS011;70018;47.838;16.490;2023-07-09T02:33:05;9.55;;;3.35;;
55372;SDS011;70018;47.838;16.490;2023-07-09T02:35:32;4.35;;;3.10;;
55372;SDS011;70018;47.838;16.490;2023-07-09T02:37:59;5.35;;;3.20;;
55372;SDS011;70018;47.838;16.490;2023-07-09T02:40:25;3.33;;;2.50;;
55372;SDS011;70018;47.838;16.490;2023-07-09T02:42:52;4.20;;;2.90;;
55372;SDS011;70018;47.838;16.490;2023-07-09T02:45:18;2.53;;;1.83;;
55372;SDS011;70018;47.838;16.490;2023-07-09T02:47:45;18.73;;;2.72;;
55372;SDS011;70018;47.838;16.490;2023-07-09T02:50:12;4.90;;;2.90;;
55372;SDS011;70018;47.838;16.490;2023-07-09T02:52:39;3.50;;;2.70;;
55372;SDS011;70018;47.838;16.490;2023-07-09T02:55:08;5.40;;;3.50;;
55372;SDS011;70018;47.838;16.490;2023-07-09T02:57:35;4.32;;;2.67;;
55372;SDS011;70018;47.838;16.490;2023-07-09T03:00:01;5.72;;;3.15;;
55372;SDS011;70018;47.838;16.490;2023-07-09T03:02:30;5.57;;;3.38;;
55372;SDS011;70018;47.838;16.490;2023-07-09T03:04:57;3.90;;;2.72;;
55372;SDS011;70018;47.838;16.490;2023-07-09T03:07:24;6.13;;;3.08;;
55372;SDS011;70018;47.838;16.490;2023-07-09T03:09:51;3.92;;;2.97;;
55372;SDS011;70018;47.838;16.490;2023-07-09T03:12:18;6.32;;;3.40;;
55372;SDS011;70018;47.838;16.490;2023-07-09T03:14:47;4.03;;;2.97;;
55372;SDS011;70018;47.838;16.490;2023-07-09T03:17:14;2.97;;;2.15;;
55372;SDS011;70018;47.838;16.490;2023-07-09T03:19:41;4.57;;;3.08;;
55372;SDS011;70018;47.838;16.490;2023-07-09T03:22:07;7.88;;;3.25;;
55372;SDS011;70018;47.838;16.490;2023-07-09T03:24:34;5.70;;;3.40;;
55372;SDS011;70018;47.838;16.490;2023-07-09T03:27:00;6.28;;;2.95;;
55372;SDS011;70018;47.838;16.490;2023-07-09T03:29:27;6.60;;;3.28;;
55372;SDS011;70018;47.838;16.490;2023-07-09T03:31:53;5.30;;;2.88;;
55372;SDS011;70018;47.838;16.490;2023-07-09T03:34:20;6.07;;;2.33;;
55372;SDS011;70018;47.838;16.490;2023-07-09T03:36:47;4.95;;;3.20;;
55372;SDS011;70018;47.838;16.490;2023-07-09T03:39:13;5.43;;;3.22;;
55372;SDS011;70018;47.838;16.490;2023-07-09T03:41:40;6.10;;;3.13;;
55372;SDS011;70018;47.838;16.490;2023-07-09T03:44:07;6.65;;;3.47;;
55372;SDS011;70018;47.838;16.490;2023-07-09T03:46:33;5.65;;;3.08;;
55372;SDS011;70018;47.838;16.490;2023-07-09T03:49:00;7.00;;;3.55;;
55372;SDS011;70018;47.838;16.490;2023-07-09T03:51:26;5.10;;;3.25;;
55372;SDS011;70018;47.838;16.490;2023-07-09T03:53:53;6.07;;;3.92;;
55372;SDS011;70018;47.838;16.490;2023-07-09T03:56:20;5.95;;;2.95;;
55372;SDS011;70018;47.838;16.490;2023-07-09T03:58:46;3.50;;;2.30;;
55372;SDS011;70018;47.838;16.490;2023-07-09T04:01:13;3.28;;;1.90;;
55372;SDS011;70018;47.838;16.490;2023-07-09T04:03:43;2.25;;;1.58;;
55372;SDS011;70018;47.838;16.490;2023-07-09T04:06:09;1.67;;;1.42;;
55372;SDS011;70018;47.838;16.490;2023-07-09T04:08:36;2.15;;;1.20;;
55372;SDS011;70018;47.838;16.490;2023-07-09T04:11:03;2.00;;;1.15;;
55372;SDS011;70018;47.838;16.490;2023-07-09T04:13:29;2.90;;;1.50;;
55372;SDS011;70018;47.838;16.490;2023-07-09T04:15:56;1.10;;;0.90;;
55372;SDS011;70018;47.838;16.490;2023-07-09T04:18:23;1.90;;;1.25;;
55372;SDS011;70018;47.838;16.490;2023-07-09T04:20:50;1.85;;;1.17;;
55372;SDS011;70018;47.838;16.490;2023-07-09T04:23:18;1.48;;;1.10;;
55372;SDS011;70018;47.838;16.490;2023-07-09T04:25:45;2.08;;;1.42;;
55372;SDS011;70018;47.838;16.490;2023-07-09T04:28:12;3.45;;;1.85;;
55372;SDS011;70018;47.838;16.490;2023-07-09T04:30:44;4.00;;;1.80;;
55372;SDS011;70018;47.838;16.490;2023-07-09T04:33:18;3.65;;;1.98;;
55372;SDS011;70018;47.838;16.490;2023-07-09T04:35:47;2.65;;;1.73;;
55372;SDS011;70018;47.838;16.490;2023-07-09T04:38:14;3.25;;;1.92;;
55372;SDS011;70018;47.838;16.490;2023-07-09T04:40:41;1.50;;;1.00;;
55372;SDS011;70018;47.838;16.490;2023-07-09T04:43:08;0.80;;;0.80;;
55372;SDS011;70018;47.838;16.490;2023-07-09T04:45:35;1.50;;;0.90;;
55372;SDS011;70018;47.838;16.490;2023-07-09T04:48:01;1.73;;;1.13;;
55372;SDS011;70018;47.838;16.490;2023-07-09T04:50:28;2.15;;;1.20;;
55372;SDS011;70018;47.838;16.490;2023-07-09T04:52:55;1.48;;;0.98;;
55372;SDS011;70018;47.838;16.490;2023-07-09T04:55:22;1.33;;;0.88;;
55372;SDS011;70018;47.838;16.490;2023-07-09T04:57:48;1.80;;;1.08;;
55372;SDS011;70018;47.838;16.490;2023-07-09T05:00:15;3.50;;;1.15;;
55372;SDS011;70018;47.838;16.490;2023-07-09T05:02:42;1.40;;;1.10;;
55372;SDS011;70018;47.838;16.490;2023-07-09T05:05:08;1.30;;;0.77;;
55372;SDS011;70018;47.838;16.490;2023-07-09T05:07:35;1.60;;;1.08;;
55372;SDS011;70018;47.838;16.490;2023-07-09T05:10:02;3.03;;;1.30;;
55372;SDS011;70018;47.838;16.490;2023-07-09T05:12:29;1.38;;;1.10;;
55372;SDS011;70018;47.838;16.490;2023-07-09T05:14:56;2.03;;;1.27;;
55372;SDS011;70018;47.838;16.490;2023-07-09T05:17:23;1.20;;;0.88;;
55372;SDS011;70018;47.838;16.490;2023-07-09T05:19:50;3.80;;;1.67;;
55372;SDS011;70018;47.838;16.490;2023-07-09T05:22:17;2.55;;;1.40;;
55372;SDS011;70018;47.838;16.490;2023-07-09T05:24:44;1.40;;;1.10;;
55372;SDS011;70018;47.838;16.490;2023-07-09T05:27:11;1.63;;;1.20;;
55372;SDS011;70018;47.838;16.490;2023-07-09T05:29:37;2.67;;;1.52;;
55372;SDS011;70018;47.838;16.490;2023-07-09T05:32:04;1.10;;;1.00;;
55372;SDS011;70018;47.838;16.490;2023-07-09T05:34:31;1.67;;;1.10;;
55372;SDS011;70018;47.838;16.490;2023-07-09T05:36:57;3.20;;;1.27;;
55372;SDS011;70018;47.838;16.490;2023-07-09T05:39:26;2.17;;;1.30;;
55372;SDS011;70018;47.838;16.490;2023-07-09T05:41:53;2.22;;;1.42;;
55372;SDS011;70018;47.838;16.490;2023-07-09T05:44:20;4.10;;;1.63;;
55372;SDS011;70018;47.838;16.490;2023-07-09T05:46:46;2.38;;;1.20;;
55372;SDS011;70018;47.838;16.490;2023-07-09T05:49:13;2.40;;;1.35;;
55372;SDS011;70018;47.838;16.490;2023-07-09T05:51:40;1.98;;;1.42;;
55372;SDS011;70018;47.838;16.490;2023-07-09T05:54:06;2.42;;;1.50;;
55372;SDS011;70018;47.838;16.490;2023-07-09T05:56:33;3.20;;;1.95;;
55372;SDS011;70018;47.838;16.490;2023-07-09T05:59:00;2.60;;;1.50;;
55372;SDS011;70018;47.838;16.490;2023-07-09T06:01:27;1.83;;;1.33;;
55372;SDS011;70018;47.838;16.490;2023-07-09T06:03:53;2.47;;;1.73;;
55372;SDS011;70018;47.838;16.490;2023-07-09T06:06:20;2.10;;;1.42;;
55372;SDS011;70018;47.838;16.490;2023-07-09T06:08:48;3.42;;;1.60;;
55372;SDS011;70018;47.838;16.490;2023-07-09T06:11:16;1.75;;;1.23;;
55372;SDS011;70018;47.838;16.490;2023-07-09T06:13:44;1.48;;;1.20;;
55372;SDS011;70018;47.838;16.490;2023-07-09T06:16:13;1.73;;;1.10;;
55372;SDS011;70018;47.838;16.490;2023-07-09T06:18:40;3.08;;;1.92;;
55372;SDS011;70018;47.838;16.490;2023-07-09T06:21:07;2.08;;;1.30;;
55372;SDS011;70018;47.838;16.490;2023-07-09T06:23:35;1.83;;;1.38;;
55372;SDS011;70018;47.838;16.490;2023-07-09T06:26:02;1.55;;;1.20;;
55372;SDS011;70018;47.838;16.490;2023-07-09T06:28:29;1.60;;;1.30;;
55372;SDS011;70018;47.838;16.490;2023-07-09T06:30:56;2.65;;;1.73;;
55372;SDS011;70018;47.838;16.490;2023-07-09T06:33:24;3.25;;;1.23;;
55372;SDS011;70018;47.838;16.490;2023-07-09T06:35:59;3.15;;;1.80;;
55372;SDS011;70018;47.838;16.490;2023-07-09T06:38:27;1.70;;;1.45;;
55372;SDS011;70018;47.838;16.490;2023-07-09T06:40:56;2.30;;;1.73;;
55372;SDS011;70018;47.838;16.490;2023-07-09T06:43:23;2.20;;;1.33;;
55372;SDS011;70018;47.838;16.490;2023-07-09T06:48:17;2.30;;;1.40;;
55372;SDS011;70018;47.838;16.490;2023-07-09T06:50:44;2.13;;;1.73;;
55372;SDS011;70018;47.838;16.490;2023-07-09T06:53:11;2.28;;;1.60;;
55372;SDS011;70018;47.838;16.490;2023-07-09T06:55:38;3.05;;;1.88;;
55372;SDS011;70018;47.838;16.490;2023-07-09T06:58:05;1.70;;;1.33;;
55372;SDS011;70018;47.838;16.490;2023-07-09T07:00:33;2.33;;;1.60;;
55372;SDS011;70018;47.838;16.490;2023-07-09T07:03:01;2.90;;;1.90;;
55372;SDS011;70018;47.838;16.490;2023-07-09T07:05:29;2.65;;;1.30;;
55372;SDS011;70018;47.838;16.490;2023-07-09T07:07:57;2.40;;;1.48;;
55372;SDS011;70018;47.838;16.490;2023-07-09T07:10:24;3.03;;;1.65;;
55372;SDS011;70018;47.838;16.490;2023-07-09T07:12:53;1.92;;;1.23;;
55372;SDS011;70018;47.838;16.490;2023-07-09T07:15:20;1.95;;;1.20;;
55372;SDS011;70018;47.838;16.490;2023-07-09T07:17:47;4.88;;;1.67;;
55372;SDS011;70018;47.838;16.490;2023-07-09T07:20:15;2.45;;;1.60;;
55372;SDS011;70018;47.838;16.490;2023-07-09T07:22:43;5.38;;;1.50;;
55372;SDS011;70018;47.838;16.490;2023-07-09T07:25:10;2.58;;;1.58;;
55372;SDS011;70018;47.838;16.490;2023-07-09T07:27:37;2.58;;;1.42;;
55372;SDS011;70018;47.838;16.490;2023-07-09T07:30:04;2.10;;;1.40;;
55372;SDS011;70018;47.838;16.490;2023-07-09T07:32:36;2.50;;;1.70;;
55372;SDS011;70018;47.838;16.490;2023-07-09T07:35:04;2.65;;;1.63;;
55372;SDS011;70018;47.838;16.490;2023-07-09T07:37:31;1.92;;;1.30;;
55372;SDS011;70018;47.838;16.490;2023-07-09T07:39:58;2.10;;;1.40;;
55372;SDS011;70018;47.838;16.490;2023-07-09T07:42:24;2.20;;;1.70;;
55372;SDS011;70018;47.838;16.490;2023-07-09T07:44:51;2.25;;;1.65;;
55372;SDS011;70018;47.838;16.490;2023-07-09T07:47:18;2.03;;;1.40;;
55372;SDS011;70018;47.838;16.490;2023-07-09T07:49:45;3.22;;;1.60;;
55372;SDS011;70018;47.838;16.490;2023-07-09T07:52:11;3.55;;;1.45;;
55372;SDS011;70018;47.838;16.490;2023-07-09T07:54:38;2.13;;;1.30;;
55372;SDS011;70018;47.838;16.490;2023-07-09T07:57:04;2.67;;;1.60;;
55372;SDS011;70018;47.838;16.490;2023-07-09T07:59:31;1.73;;;1.30;;
55372;SDS011;70018;47.838;16.490;2023-07-09T08:02:01;2.13;;;1.60;;
55372;SDS011;70018;47.838;16.490;2023-07-09T08:04:29;3.00;;;1.50;;
55372;SDS011;70018;47.838;16.490;2023-07-09T08:06:55;2.92;;;1.60;;
55372;SDS011;70018;47.838;16.490;2023-07-09T08:09:22;1.50;;;1.33;;
55372;SDS011;70018;47.838;16.490;2023-07-09T08:11:49;2.25;;;1.40;;
55372;SDS011;70018;47.838;16.490;2023-07-09T08:14:15;2.08;;;1.38;;
55372;SDS011;70018;47.838;16.490;2023-07-09T08:16:43;2.53;;;1.10;;
55372;SDS011;70018;47.838;16.490;2023-07-09T08:19:10;7.97;;;1.83;;
55372;SDS011;70018;47.838;16.490;2023-07-09T08:21:36;2.38;;;1.70;;
55372;SDS011;70018;47.838;16.490;2023-07-09T08:24:03;1.63;;;1.20;;
55372;SDS011;70018;47.838;16.490;2023-07-09T08:26:30;3.20;;;1.17;;
55372;SDS011;70018;47.838;16.490;2023-07-09T08:28:57;2.33;;;1.75;;
55372;SDS011;70018;47.838;16.490;2023-07-09T08:31:24;2.13;;;1.38;;
55372;SDS011;70018;47.838;16.490;2023-07-09T08:33:51;2.30;;;1.90;;
55372;SDS011;70018;47.838;16.490;2023-07-09T08:36:17;1.90;;;1.33;;
55372;SDS011;70018;47.838;16.490;2023-07-09T08:38:44;3.97;;;1.77;;
55372;SDS011;70018;47.838;16.490;2023-07-09T08:41:32;2.90;;;1.70;;
55372;SDS011;70018;47.838;16.490;2023-07-09T08:46:54;1.83;;;1.20;;
55372;SDS011;70018;47.838;16.490;2023-07-09T08:49:21;2.13;;;1.60;;
55372;SDS011;70018;47.838;16.490;2023-07-09T08:51:59;2.20;;;1.25;;
55372;SDS011;70018;47.838;16.490;2023-07-09T08:54:31;2.33;;;1.30;;
55372;SDS011;70018;47.838;16.490;2023-07-09T08:57:21;2.40;;;1.50;;
55372;SDS011;70018;47.838;16.490;2023-07-09T08:59:52;1.50;;;1.10;;
55372;SDS011;70018;47.838;16.490;2023-07-09T09:02:35;3.13;;;2.20;;
55372;SDS011;70018;47.838;16.490;2023-07-09T09:05:12;2.13;;;1.20;;
55372;SDS011;70018;47.838;16.490;2023-07-09T09:07:43;1.58;;;1.10;;
55372;SDS011;70018;47.838;16.490;2023-07-09T09:10:14;3.17;;;1.40;;
55372;SDS011;70018;47.838;16.490;2023-07-09T09:12:55;1.60;;;1.33;;
55372;SDS011;70018;47.838;16.490;2023-07-09T09:17:56;2.95;;;2.20;;
55372;SDS011;70018;47.838;16.490;2023-07-09T09:20:37;2.63;;;1.30;;
55372;SDS011;70018;47.838;16.490;2023-07-09T09:25:33;3.13;;;1.10;;
55372;SDS011;70018;47.838;16.490;2023-07-09T09:28:03;4.05;;;1.75;;
55372;SDS011;70018;47.838;16.490;2023-07-09T09:30:30;2.58;;;1.40;;
55372;SDS011;70018;47.838;16.490;2023-07-09T09:33:16;2.58;;;1.30;;
55372;SDS011;70018;47.838;16.490;2023-07-09T09:35:44;1.90;;;1.30;;
55372;SDS011;70018;47.838;16.490;2023-07-09T09:38:12;3.58;;;2.58;;
55372;SDS011;70018;47.838;16.490;2023-07-09T09:40:42;4.55;;;1.83;;
55372;SDS011;70018;47.838;16.490;2023-07-09T09:43:19;1.85;;;1.45;;
55372;SDS011;70018;47.838;16.490;2023-07-09T09:45:48;2.40;;;1.40;;
55372;SDS011;70018;47.838;16.490;2023-07-09T09:48:19;2.55;;;1.40;;
55372;SDS011;70018;47.838;16.490;2023-07-09T09:50:53;1.90;;;1.35;;
55372;SDS011;70018;47.838;16.490;2023-07-09T09:53:24;1.98;;;1.17;;
55372;SDS011;70018;47.838;16.490;2023-07-09T09:55:51;2.67;;;1.88;;
55372;SDS011;70018;47.838;16.490;2023-07-09T09:58:19;2.53;;;1.63;;
55372;SDS011;70018;47.838;16.490;2023-07-09T10:00:52;3.95;;;2.10;;
55372;SDS011;70018;47.838;16.490;2023-07-09T10:03:21;3.50;;;2.28;;
55372;SDS011;70018;47.838;16.490;2023-07-09T10:06:00;3.40;;;2.25;;
55372;SDS011;70018;47.838;16.490;2023-07-09T10:11:45;3.17;;;2.03;;
55372;SDS011;70018;47.838;16.490;2023-07-09T10:14:24;2.95;;;1.85;;
55372;SDS011;70018;47.838;16.490;2023-07-09T10:17:00;2.10;;;1.33;;
55372;SDS011;70018;47.838;16.490;2023-07-09T10:19:39;2.47;;;1.25;;
55372;SDS011;70018;47.838;16.490;2023-07-09T10:22:19;2.10;;;1.50;;
55372;SDS011;70018;47.838;16.490;2023-07-09T10:25:02;2.17;;;1.40;;
55372;SDS011;70018;47.838;16.490;2023-07-09T10:31:10;1.67;;;1.30;;
55372;SDS011;70018;47.838;16.490;2023-07-09T10:36:52;2.13;;;1.20;;
55372;SDS011;70018;47.838;16.490;2023-07-09T10:39:46;2.38;;;1.63;;
55372;SDS011;70018;47.838;16.490;2023-07-09T10:42:22;2.75;;;1.25;;
55372;SDS011;70018;47.838;16.490;2023-07-09T10:45:12;2.08;;;1.60;;
55372;SDS011;70018;47.838;16.490;2023-07-09T10:47:43;2.75;;;2.03;;
55372;SDS011;70018;47.838;16.490;2023-07-09T10:50:36;2.83;;;1.90;;
55372;SDS011;70018;47.838;16.490;2023-07-09T10:53:09;2.03;;;1.15;;
55372;SDS011;70018;47.838;16.490;2023-07-09T10:56:04;1.60;;;1.13;;
55372;SDS011;70018;47.838;16.490;2023-07-09T10:58:43;1.60;;;1.10;;
55372;SDS011;70018;47.838;16.490;2023-07-09T11:01:17;1.27;;;1.10;;
55372;SDS011;70018;47.838;16.490;2023-07-09T11:03:50;3.08;;;1.48;;
55372;SDS011;70018;47.838;16.490;2023-07-09T11:06:35;2.35;;;1.40;;
55372;SDS011;70018;47.838;16.490;2023-07-09T11:09:14;1.90;;;1.13;;
55372;SDS011;70018;47.838;16.490;2023-07-09T11:11:53;3.47;;;0.93;;
55372;SDS011;70018;47.838;16.490;2023-07-09T11:14:25;1.60;;;0.98;;
55372;SDS011;70018;47.838;16.490;2023-07-09T11:16:57;2.22;;;1.33;;
55372;SDS011;70018;47.838;16.490;2023-07-09T11:19:25;2.05;;;1.30;;
55372;SDS011;70018;47.838;16.490;2023-07-09T11:22:06;1.35;;;1.00;;
55372;SDS011;70018;47.838;16.490;2023-07-09T11:24:47;3.20;;;1.40;;
55372;SDS011;70018;47.838;16.490;2023-07-09T11:27:26;1.25;;;1.08;;
55372;SDS011;70018;47.838;16.490;2023-07-09T11:30:01;2.67;;;1.42;;
55372;SDS011;70018;47.838;16.490;2023-07-09T11:32:31;1.70;;;1.33;;
55372;SDS011;70018;47.838;16.490;2023-07-09T11:35:07;1.67;;;1.30;;
55372;SDS011;70018;47.838;16.490;2023-07-09T11:37:43;1.27;;;0.90;;
55372;SDS011;70018;47.838;16.490;2023-07-09T11:40:12;1.95;;;1.48;;
55372;SDS011;70018;47.838;16.490;2023-07-09T11:42:50;1.90;;;1.30;;
55372;SDS011;70018;47.838;16.490;2023-07-09T11:45:31;2.20;;;1.33;;
55372;SDS011;70018;47.838;16.490;2023-07-09T11:48:19;2.47;;;1.60;;
55372;SDS011;70018;47.838;16.490;2023-07-09T11:51:02;2.65;;;1.08;;
55372;SDS011;70018;47.838;16.490;2023-07-09T11:53:35;2.65;;;1.00;;
55372;SDS011;70018;47.838;16.490;2023-07-09T11:56:09;1.58;;;0.90;;
55372;SDS011;70018;47.838;16.490;2023-07-09T11:58:36;3.60;;;1.42;;
55372;SDS011;70018;47.838;16.490;2023-07-09T12:01:02;1.65;;;1.17;;
55372;SDS011;70018;47.838;16.490;2023-07-09T12:03:41;2.78;;;1.45;;
55372;SDS011;70018;47.838;16.490;2023-07-09T12:06:19;2.67;;;1.55;;
55372;SDS011;70018;47.838;16.490;2023-07-09T12:08:49;2.53;;;1.80;;
55372;SDS011;70018;47.838;16.490;2023-07-09T12:11:21;1.80;;;1.40;;
55372;SDS011;70018;47.838;16.490;2023-07-09T12:13:50;3.45;;;1.80;;
55372;SDS011;70018;47.838;16.490;2023-07-09T12:16:22;1.50;;;1.33;;
55372;SDS011;70018;47.838;16.490;2023-07-09T12:18:56;2.30;;;1.30;;
55372;SDS011;70018;47.838;16.490;2023-07-09T12:21:23;2.00;;;1.35;;
55372;SDS011;70018;47.838;16.490;2023-07-09T12:23:52;2.70;;;1.40;;
55372;SDS011;70018;47.838;16.490;2023-07-09T12:26:22;2.15;;;1.42;;
55372;SDS011;70018;47.838;16.490;2023-07-09T12:28:49;3.97;;;1.88;;
55372;SDS011;70018;47.838;16.490;2023-07-09T12:31:21;4.20;;;1.60;;
55372;SDS011;70018;47.838;16.490;2023-07-09T12:33:53;2.65;;;1.58;;
55372;SDS011;70018;47.838;16.490;2023-07-09T12:36:21;2.17;;;1.40;;
55372;SDS011;70018;47.838;16.490;2023-07-09T12:38:51;2.28;;;1.58;;
55372;SDS011;70018;47.838;16.490;2023-07-09T12:41:28;2.97;;;1.60;;
55372;SDS011;70018;47.838;16.490;2023-07-09T12:43:58;1.80;;;1.17;;
55372;SDS011;70018;47.838;16.490;2023-07-09T12:46:26;2.35;;;1.27;;
55372;SDS011;70018;47.838;16.490;2023-07-09T12:48:55;1.58;;;1.10;;
55372;SDS011;70018;47.838;16.490;2023-07-09T12:51:28;1.15;;;0.98;;
55372;SDS011;70018;47.838;16.490;2023-07-09T12:56:41;2.00;;;1.70;;
55372;SDS011;70018;47.838;16.490;2023-07-09T12:59:16;1.77;;;1.20;;
55372;SDS011;70018;47.838;16.490;2023-07-09T13:01:56;1.70;;;1.00;;
55372;SDS011;70018;47.838;16.490;2023-07-09T13:04:36;1.30;;;0.98;;
55372;SDS011;70018;47.838;16.490;2023-07-09T13:07:04;1.67;;;1.25;;
55372;SDS011;70018;47.838;16.490;2023-07-09T13:09:31;2.05;;;1.45;;
55372;SDS011;70018;47.838;16.490;2023-07-09T13:11:58;1.88;;;1.30;;
55372;SDS011;70018;47.838;16.490;2023-07-09T13:14:26;1.77;;;1.20;;
55372;SDS011;70018;47.838;16.490;2023-07-09T13:17:05;3.13;;;1.52;;
55372;SDS011;70018;47.838;16.490;2023-07-09T13:19:33;1.27;;;1.00;;
55372;SDS011;70018;47.838;16.490;2023-07-09T13:21:59;2.50;;;1.40;;
55372;SDS011;70018;47.838;16.490;2023-07-09T13:24:28;3.15;;;1.80;;
55372;SDS011;70018;47.838;16.490;2023-07-09T13:26:56;2.38;;;1.27;;
55372;SDS011;70018;47.838;16.490;2023-07-09T13:29:26;3.92;;;1.73;;
55372;SDS011;70018;47.838;16.490;2023-07-09T13:31:53;3.08;;;1.90;;
55372;SDS011;70018;47.838;16.490;2023-07-09T13:34:25;2.33;;;1.33;;
55372;SDS011;70018;47.838;16.490;2023-07-09T13:36:54;1.70;;;1.10;;
55372;SDS011;70018;47.838;16.490;2023-07-09T13:39:24;5.28;;;2.30;;
55372;SDS011;70018;47.838;16.490;2023-07-09T13:41:54;4.65;;;1.73;;
55372;SDS011;70018;47.838;16.490;2023-07-09T13:44:22;2.45;;;1.60;;
55372;SDS011;70018;47.838;16.490;2023-07-09T13:46:54;2.38;;;1.70;;
55372;SDS011;70018;47.838;16.490;2023-07-09T13:49:23;2.78;;;1.45;;
55372;SDS011;70018;47.838;16.490;2023-07-09T13:51:51;1.13;;;1.02;;
55372;SDS011;70018;47.838;16.490;2023-07-09T13:54:23;1.42;;;1.10;;
55372;SDS011;70018;47.838;16.490;2023-07-09T13:56:53;2.03;;;1.30;;
55372;SDS011;70018;47.838;16.490;2023-07-09T13:59:21;2.22;;;1.50;;
55372;SDS011;70018;47.838;16.490;2023-07-09T14:01:50;1.55;;;1.10;;
55372;SDS011;70018;47.838;16.490;2023-07-09T14:04:20;1.63;;;1.02;;
55372;SDS011;70018;47.838;16.490;2023-07-09T14:06:47;2.22;;;1.30;;
55372;SDS011;70018;47.838;16.490;2023-07-09T14:09:14;1.17;;;1.00;;
55372;SDS011;70018;47.838;16.490;2023-07-09T14:11:46;2.60;;;1.10;;
55372;SDS011;70018;47.838;16.490;2023-07-09T14:14:16;2.50;;;1.58;;
55372;SDS011;70018;47.838;16.490;2023-07-09T14:16:46;3.50;;;1.88;;
55372;SDS011;70018;47.838;16.490;2023-07-09T14:19:20;3.47;;;1.90;;
55372;SDS011;70018;47.838;16.490;2023-07-09T14:21:49;2.65;;;1.55;;
55372;SDS011;70018;47.838;16.490;2023-07-09T14:24:26;2.55;;;1.40;;
55372;SDS011;70018;47.838;16.490;2023-07-09T14:26:55;1.13;;;0.93;;
55372;SDS011;70018;47.838;16.490;2023-07-09T14:29:24;1.55;;;1.20;;
55372;SDS011;70018;47.838;16.490;2023-07-09T14:31:52;3.30;;;1.45;;
55372;SDS011;70018;47.838;16.490;2023-07-09T14:36:46;1.88;;;1.10;;
55372;SDS011;70018;47.838;16.490;2023-07-09T14:39:13;1.55;;;1.10;;
55372;SDS011;70018;47.838;16.490;2023-07-09T14:41:40;2.03;;;1.40;;
55372;SDS011;70018;47.838;16.490;2023-07-09T14:44:29;1.83;;;1.17;;
55372;SDS011;70018;47.838;16.490;2023-07-09T14:46:57;1.85;;;1.20;;
55372;SDS011;70018;47.838;16.490;2023-07-09T14:49:26;2.33;;;1.30;;
55372;SDS011;70018;47.838;16.490;2023-07-09T14:51:53;2.08;;;1.65;;
55372;SDS011;70018;47.838;16.490;2023-07-09T14:54:21;2.30;;;1.85;;
55372;SDS011;70018;47.838;16.490;2023-07-09T14:56:50;2.92;;;1.65;;
55372;SDS011;70018;47.838;16.490;2023-07-09T14:59:18;2.38;;;1.55;;
55372;SDS011;70018;47.838;16.490;2023-07-09T15:01:45;1.63;;;1.15;;
55372;SDS011;70018;47.838;16.490;2023-07-09T15:06:54;1.50;;;0.95;;
55372;SDS011;70018;47.838;16.490;2023-07-09T15:09:22;1.80;;;1.00;;
55372;SDS011;70018;47.838;16.490;2023-07-09T15:11:54;2.35;;;1.70;;
55372;SDS011;70018;47.838;16.490;2023-07-09T15:14:23;1.73;;;1.15;;
55372;SDS011;70018;47.838;16.490;2023-07-09T15:16:51;1.58;;;1.15;;
55372;SDS011;70018;47.838;16.490;2023-07-09T15:19:19;1.90;;;1.08;;
55372;SDS011;70018;47.838;16.490;2023-07-09T15:21:47;2.03;;;1.25;;